createdAt,value
2019-05-04T00:00:59.469Z,5.10
2019-05-04T00:03:28.854Z,5.00
2019-05-04T00:06:02.866Z,5.70
2019-05-04T00:08:32.156Z,5.70
2019-05-04T00:11:04.276Z,4.80
2019-05-04T00:13:35.102Z,5.27
2019-05-04T00:16:05.323Z,5.00
2019-05-04T00:18:35.443Z,4.57
2019-05-04T00:21:04.826Z,4.03
2019-05-04T00:23:35.278Z,4.43
2019-05-04T00:26:04.863Z,4.60
2019-05-04T00:28:35.464Z,4.60
2019-05-04T00:31:05.395Z,5.23
2019-05-04T00:33:46.526Z,4.70
2019-05-04T00:36:20.563Z,4.47
2019-05-04T00:38:50.007Z,4.90
2019-05-04T00:41:19.586Z,4.33
2019-05-04T00:43:49.448Z,5.17
2019-05-04T00:46:19.044Z,4.67
2019-05-04T00:48:48.446Z,4.53
2019-05-04T00:51:17.720Z,4.97
2019-05-04T00:53:46.984Z,4.40
2019-05-04T00:56:17.684Z,4.53
2019-05-04T00:58:51.814Z,4.83
2019-05-04T01:01:31.032Z,4.03
2019-05-04T01:04:00.298Z,4.17
2019-05-04T01:06:29.481Z,4.93
2019-05-04T01:08:58.912Z,4.37
2019-05-04T01:11:28.288Z,4.30
2019-05-04T01:13:57.506Z,4.37
2019-05-04T01:16:27.731Z,4.30
2019-05-04T01:18:58.055Z,4.47
2019-05-04T01:21:27.361Z,5.03
2019-05-04T01:23:56.829Z,5.20
2019-05-04T01:26:25.991Z,3.97
2019-05-04T01:28:55.832Z,4.70
2019-05-04T01:31:25.516Z,4.13
2019-05-04T01:34:15.265Z,4.10
2019-05-04T01:36:50.228Z,4.20
2019-05-04T01:39:29.819Z,3.63
2019-05-04T01:41:59.042Z,5.03
2019-05-04T01:44:28.473Z,4.27
2019-05-04T01:46:57.793Z,3.40
2019-05-04T01:49:27.231Z,3.60
2019-05-04T01:51:56.628Z,4.57
2019-05-04T01:54:25.887Z,3.37
2019-05-04T01:56:59.457Z,4.90
2019-05-04T01:59:34.839Z,3.63
2019-05-04T02:02:05.161Z,3.83
2019-05-04T02:04:35.544Z,4.70
2019-05-04T02:07:05.135Z,3.80
2019-05-04T02:09:35.442Z,3.43
2019-05-04T02:12:06.008Z,4.57
2019-05-04T02:14:35.749Z,3.60
2019-05-04T02:17:05.504Z,4.00
2019-05-04T02:19:35.184Z,2.30
2019-05-04T02:22:21.469Z,3.70
2019-05-04T02:24:52.554Z,3.53
2019-05-04T02:27:35.024Z,4.17
2019-05-04T02:30:29.854Z,5.47
2019-05-04T02:32:59.207Z,5.43
2019-05-04T02:35:28.619Z,4.40
2019-05-04T02:38:08.552Z,4.10
2019-05-04T02:40:39.457Z,4.70
2019-05-04T02:43:05.762Z,5.90
2019-05-04T02:45:39.760Z,5.10
2019-05-04T02:48:16.404Z,4.10
2019-05-04T02:50:55.771Z,4.40
2019-05-04T02:53:25.804Z,5.10
2019-05-04T02:55:55.386Z,3.50
2019-05-04T02:58:26.327Z,4.30
2019-05-04T03:00:56.361Z,4.03
2019-05-04T03:03:25.954Z,4.00
2019-05-04T03:05:56.325Z,4.00
2019-05-04T03:08:33.336Z,3.80
2019-05-04T03:10:57.271Z,4.83
2019-05-04T03:13:26.855Z,3.83
2019-05-04T03:15:56.463Z,5.20
2019-05-04T03:18:31.537Z,2.67
2019-05-04T03:21:18.949Z,3.90
2019-05-04T03:23:54.973Z,3.57
2019-05-04T03:26:26.309Z,3.60
2019-05-04T03:28:55.434Z,3.80
2019-05-04T03:31:27.992Z,4.10
2019-05-04T03:33:58.011Z,3.63
2019-05-04T03:36:33.050Z,3.93
2019-05-04T03:38:58.980Z,3.60
2019-05-04T03:41:28.437Z,3.30
2019-05-04T03:43:57.707Z,3.40
2019-05-04T03:46:55.595Z,3.90
2019-05-04T03:49:40.941Z,3.63
2019-05-04T03:52:10.308Z,3.60
2019-05-04T03:54:39.589Z,4.87
2019-05-04T03:57:08.842Z,3.90
2019-05-04T03:59:38.202Z,4.70
2019-05-04T04:02:07.455Z,3.60
2019-05-04T04:04:36.825Z,4.83
2019-05-04T04:07:19.731Z,5.10
2019-05-04T04:09:50.822Z,4.03
2019-05-04T04:12:21.982Z,4.10
2019-05-04T04:14:55.163Z,5.10
2019-05-04T04:17:30.428Z,4.57
2019-05-04T04:19:59.977Z,6.03
2019-05-04T04:22:30.090Z,4.63
2019-05-04T04:24:59.449Z,5.93
2019-05-04T04:27:35.907Z,5.60
2019-05-04T04:30:06.630Z,5.30
2019-05-04T04:32:36.553Z,5.33
2019-05-04T04:35:07.299Z,5.50
2019-05-04T04:37:36.574Z,6.27
2019-05-04T04:40:06.885Z,5.57
2019-05-04T04:42:36.559Z,5.13
2019-05-04T04:45:07.572Z,4.60
2019-05-04T04:47:39.109Z,4.73
2019-05-04T04:50:09.078Z,4.33
2019-05-04T04:52:39.359Z,3.73
2019-05-04T04:55:20.437Z,4.27
2019-05-04T04:57:59.713Z,4.80
2019-05-04T05:00:40.151Z,3.67
2019-05-04T05:03:09.511Z,4.00
2019-05-04T05:05:46.298Z,5.03
2019-05-04T05:08:16.835Z,4.60
2019-05-04T05:10:46.333Z,4.60
2019-05-04T05:13:15.687Z,4.60
2019-05-04T05:15:45.039Z,4.57
2019-05-04T05:18:15.236Z,3.87
2019-05-04T05:20:59.813Z,4.47
2019-05-04T05:23:29.195Z,4.93
2019-05-04T05:25:58.828Z,5.90
2019-05-04T05:28:28.299Z,4.50
2019-05-04T05:31:19.915Z,4.83
2019-05-04T05:34:01.855Z,4.50
2019-05-04T05:36:32.077Z,4.17
2019-05-04T05:39:01.506Z,5.20
2019-05-04T05:41:30.656Z,4.60
2019-05-04T05:44:00.313Z,4.70
2019-05-04T05:46:51.801Z,4.40
2019-05-04T05:49:42.925Z,4.20
2019-05-04T05:52:39.398Z,4.07
2019-05-04T05:55:17.725Z,4.33
2019-05-04T05:57:57.896Z,3.70
2019-05-04T06:00:45.395Z,4.20
2019-05-04T06:03:25.314Z,4.13
2019-05-04T06:05:56.200Z,4.77
2019-05-04T06:08:26.706Z,4.50
2019-05-04T06:10:57.892Z,5.87
2019-05-04T06:13:55.464Z,5.63
2019-05-04T06:16:41.763Z,5.70
2019-05-04T06:19:25.057Z,7.40
2019-05-04T06:22:17.059Z,5.93
2019-05-04T06:25:09.445Z,4.60
2019-05-04T06:27:57.346Z,4.13
2019-05-04T06:30:45.636Z,4.17
2019-05-04T06:33:16.029Z,5.23
2019-05-04T06:36:05.173Z,4.57
2019-05-04T06:38:41.005Z,3.60
2019-05-04T06:41:14.924Z,4.60
2019-05-04T06:44:14.636Z,5.00
2019-05-04T06:46:50.675Z,4.70
2019-05-04T06:49:20.207Z,4.70
2019-05-04T06:52:08.804Z,5.80
2019-05-04T06:54:57.263Z,6.23
2019-05-04T06:57:41.426Z,6.90
2019-05-04T07:00:17.599Z,7.20
2019-05-04T07:02:47.101Z,5.60
2019-05-04T07:05:20.661Z,6.10
2019-05-04T07:07:47.667Z,7.47
2019-05-04T07:10:17.617Z,7.10
2019-05-04T07:12:47.221Z,6.30
2019-05-04T07:15:18.720Z,7.33
2019-05-04T07:17:49.189Z,6.10
2019-05-04T07:20:19.469Z,6.43
2019-05-04T07:22:50.985Z,6.43
2019-05-04T07:25:20.573Z,7.53
2019-05-04T07:27:54.460Z,6.60
2019-05-04T07:30:24.168Z,9.13
2019-05-04T07:33:14.118Z,7.50
2019-05-04T07:36:18.091Z,9.20
2019-05-04T07:39:15.403Z,8.30
2019-05-04T07:41:51.321Z,10.10
2019-05-04T07:44:21.465Z,7.10
2019-05-04T07:46:51.690Z,6.47
2019-05-04T07:49:27.158Z,8.27
2019-05-04T07:51:55.805Z,7.20
2019-05-04T07:54:29.718Z,6.33
2019-05-04T07:57:04.706Z,7.23
2019-05-04T07:59:54.655Z,8.03
2019-05-04T08:02:30.930Z,6.50
2019-05-04T08:05:02.520Z,6.77
2019-05-04T08:07:39.885Z,5.17
2019-05-04T08:10:11.010Z,5.17
2019-05-04T08:13:03.987Z,4.40
2019-05-04T08:15:24.605Z,4.40
2019-05-04T08:17:58.640Z,4.90
2019-05-04T08:20:29.048Z,3.87
2019-05-04T08:23:01.532Z,4.30
2019-05-04T08:25:34.780Z,3.83
2019-05-04T08:28:05.731Z,4.87
2019-05-04T08:30:40.090Z,4.03
2019-05-04T08:33:08.660Z,3.47
2019-05-04T08:35:37.999Z,3.50
2019-05-04T08:38:11.327Z,3.90
2019-05-04T08:40:38.336Z,2.23
2019-05-04T08:43:16.204Z,2.90
2019-05-04T08:45:49.991Z,2.57
2019-05-04T08:48:19.738Z,2.20
2019-05-04T08:51:06.828Z,3.27
2019-05-04T08:53:50.701Z,3.10
2019-05-04T08:56:30.133Z,2.63
2019-05-04T08:59:06.475Z,3.50
2019-05-04T09:04:46.807Z,1.70
2019-05-04T09:08:05.417Z,1.97
2019-05-04T09:10:32.377Z,1.80
2019-05-04T09:13:04.237Z,3.37
2019-05-04T09:15:35.321Z,1.30
2019-05-04T09:18:07.039Z,1.90
2019-05-04T09:20:47.988Z,2.00
2019-05-04T09:23:24.527Z,1.83
2019-05-04T09:26:02.178Z,1.80
2019-05-04T09:28:30.933Z,2.17
2019-05-04T09:31:04.572Z,2.10
2019-05-04T09:33:40.481Z,2.20
2019-05-04T09:36:15.222Z,1.70
2019-05-04T09:38:45.291Z,1.80
2019-05-04T09:41:34.255Z,1.70
2019-05-04T09:44:07.461Z,2.00
2019-05-04T09:46:40.196Z,1.47
2019-05-04T09:49:20.129Z,1.93
2019-05-04T09:52:00.002Z,1.73
2019-05-04T09:57:40.625Z,1.33
2019-05-04T10:00:14.931Z,1.50
2019-05-04T10:02:45.592Z,1.40
2019-05-04T10:05:25.341Z,1.20
2019-05-04T10:07:49.204Z,1.20
2019-05-04T10:10:40.149Z,1.20
2019-05-04T10:13:24.871Z,1.27
2019-05-04T10:16:15.178Z,1.83
2019-05-04T10:19:00.852Z,1.57
2019-05-04T10:21:48.596Z,1.73
2019-05-04T10:24:18.806Z,1.60
2019-05-04T10:26:59.967Z,1.47
2019-05-04T10:29:31.680Z,1.13
2019-05-04T10:32:01.695Z,1.63
2019-05-04T10:34:31.307Z,0.60
2019-05-04T10:37:01.029Z,0.70
2019-05-04T10:39:30.598Z,0.60
2019-05-04T10:42:04.631Z,0.70
2019-05-04T10:44:36.767Z,0.60
2019-05-04T10:47:06.268Z,0.70
2019-05-04T10:49:35.766Z,0.80
2019-05-04T10:52:05.173Z,0.70
2019-05-04T10:54:36.585Z,0.70
2019-05-04T10:57:05.901Z,0.60
2019-05-04T10:59:35.588Z,0.80
2019-05-04T11:02:05.301Z,0.70
2019-05-04T11:04:35.738Z,0.70
2019-05-04T11:07:05.443Z,1.47
2019-05-04T11:09:35.224Z,0.60
2019-05-04T11:12:07.135Z,1.00
2019-05-04T11:14:36.684Z,0.70
2019-05-04T11:17:06.073Z,0.70
2019-05-04T11:19:35.355Z,0.90
2019-05-04T11:22:15.256Z,0.80
2019-05-04T11:30:34.425Z,0.60
2019-05-04T11:33:04.956Z,0.60
2019-05-04T11:35:35.387Z,0.60
2019-05-04T11:38:05.117Z,0.73
2019-05-04T11:40:40.807Z,0.70
2019-05-04T11:43:29.558Z,0.87
2019-05-04T11:45:52.935Z,0.90
2019-05-04T11:48:24.612Z,0.80
2019-05-04T11:51:05.014Z,0.70
2019-05-04T11:53:35.094Z,1.93
2019-05-04T11:56:05.130Z,1.47
2019-05-04T11:58:34.678Z,1.70
2019-05-04T12:04:08.619Z,1.63
2019-05-04T12:06:45.763Z,1.73
2019-05-04T12:09:48.356Z,1.60
2019-05-04T12:12:17.740Z,1.77
2019-05-04T12:14:47.412Z,1.60
2019-05-04T12:17:17.136Z,1.40
2019-05-04T12:19:54.289Z,1.30
2019-05-04T12:22:34.311Z,1.50
2019-05-04T12:25:07.568Z,2.60
2019-05-04T12:27:37.496Z,1.40
2019-05-04T12:30:09.018Z,1.70
2019-05-04T12:32:38.414Z,1.27
2019-05-04T12:35:08.432Z,1.07
2019-05-04T12:37:39.039Z,1.40
2019-05-04T12:40:11.784Z,1.87
2019-05-04T12:42:41.130Z,1.57
2019-05-04T12:45:10.647Z,1.50
2019-05-04T12:47:50.393Z,1.60
2019-05-04T12:50:24.912Z,3.50
2019-05-04T12:53:01.517Z,1.27
2019-05-04T12:55:30.759Z,0.67
2019-05-04T12:58:00.073Z,0.70
2019-05-04T13:00:35.775Z,2.23
2019-05-04T13:03:05.470Z,1.57
2019-05-04T13:05:34.749Z,1.33
2019-05-04T13:08:04.027Z,0.70
2019-05-04T13:10:34.667Z,1.30
2019-05-04T13:13:05.058Z,1.40
2019-05-04T13:15:35.017Z,1.17
2019-05-04T13:18:15.087Z,1.47
2019-05-04T13:20:44.474Z,1.90
2019-05-04T13:23:15.157Z,1.60
2019-05-04T13:25:45.068Z,1.20
2019-05-04T13:28:14.549Z,1.60
2019-05-04T13:30:44.395Z,1.50
2019-05-04T13:33:14.676Z,2.00
2019-05-04T13:35:44.988Z,1.93
2019-05-04T13:38:14.843Z,1.60
2019-05-04T13:40:45.703Z,1.53
2019-05-04T13:43:15.207Z,3.50
2019-05-04T13:45:45.267Z,2.33
2019-05-04T13:48:15.491Z,3.87
2019-05-04T13:50:45.396Z,2.63
2019-05-04T13:53:15.325Z,2.13
2019-05-04T13:56:08.010Z,6.30
2019-05-04T13:58:45.744Z,4.40
2019-05-04T14:01:34.369Z,2.73
2019-05-04T14:04:18.694Z,4.13
2019-05-04T14:06:55.255Z,3.23
2019-05-04T14:09:24.804Z,4.43
2019-05-04T14:12:04.737Z,3.77
2019-05-04T14:14:43.301Z,2.20
2019-05-04T14:17:05.128Z,5.00
2019-05-04T14:19:34.914Z,2.40
2019-05-04T14:22:04.543Z,4.73
2019-05-04T14:24:34.282Z,3.50
2019-05-04T14:27:05.886Z,1.90
2019-05-04T14:29:54.717Z,1.17
2019-05-04T14:32:24.964Z,2.97
2019-05-04T14:34:54.870Z,1.33
2019-05-04T14:37:24.728Z,1.80
2019-05-04T14:39:56.477Z,6.00
2019-05-04T14:42:25.819Z,1.90
2019-05-04T14:45:02.414Z,2.13
2019-05-04T14:47:45.780Z,1.87
2019-05-04T14:50:17.050Z,1.57
2019-05-04T14:52:48.646Z,1.50
2019-05-04T14:55:17.975Z,2.17
2019-05-04T14:57:47.366Z,3.57
2019-05-04T15:00:17.187Z,3.20
2019-05-04T15:02:46.508Z,2.60
2019-05-04T15:05:16.923Z,2.10
2019-05-04T15:07:47.705Z,1.90
2019-05-04T15:10:17.198Z,2.10
2019-05-04T15:12:47.577Z,1.90
2019-05-04T15:15:18.065Z,2.47
2019-05-04T15:17:47.514Z,3.17
2019-05-04T15:20:35.833Z,1.80
2019-05-04T15:23:05.191Z,2.13
2019-05-04T15:25:35.115Z,1.73
2019-05-04T15:28:06.733Z,2.03
2019-05-04T15:30:35.987Z,1.80
2019-05-04T15:33:06.219Z,2.30
2019-05-04T15:35:40.073Z,1.77
2019-05-04T15:38:09.877Z,2.03
2019-05-04T15:40:39.351Z,2.50
2019-05-04T15:43:08.692Z,2.53
2019-05-04T15:45:39.378Z,1.80
2019-05-04T15:48:08.981Z,1.77
2019-05-04T15:51:10.227Z,2.97
2019-05-04T15:53:56.292Z,2.40
2019-05-04T15:56:44.825Z,2.67
2019-05-04T15:59:17.692Z,2.43
2019-05-04T16:01:47.071Z,1.70
2019-05-04T16:04:16.452Z,3.17
2019-05-04T16:06:45.733Z,2.53
2019-05-04T16:09:15.435Z,2.70
2019-05-04T16:11:44.993Z,1.80
2019-05-04T16:14:14.722Z,1.93
2019-05-04T16:16:44.825Z,1.80
2019-05-04T16:19:16.306Z,3.03
2019-05-04T16:21:45.711Z,3.53
2019-05-04T16:24:16.575Z,2.80
2019-05-04T16:26:47.904Z,3.23
2019-05-04T16:29:17.439Z,2.10
2019-05-04T16:31:46.710Z,2.77
2019-05-04T16:34:16.706Z,2.17
2019-05-04T16:36:46.420Z,2.17
2019-05-04T16:39:15.726Z,2.40
2019-05-04T16:41:46.314Z,1.70
2019-05-04T16:44:15.504Z,3.10
2019-05-04T16:46:44.780Z,2.97
2019-05-04T16:49:15.328Z,2.17
2019-05-04T16:52:02.388Z,2.17
2019-05-04T16:54:34.201Z,2.10
2019-05-04T16:57:05.123Z,1.90
2019-05-04T16:59:35.563Z,1.90
2019-05-04T17:02:17.654Z,1.70
2019-05-04T17:04:52.050Z,2.60
2019-05-04T17:07:24.629Z,2.40
2019-05-04T17:09:59.862Z,1.97
2019-05-04T17:12:41.872Z,3.33
2019-05-04T17:15:17.399Z,2.33
2019-05-04T17:17:47.119Z,2.30
2019-05-04T17:20:18.474Z,2.20
2019-05-04T17:22:48.785Z,1.90
2019-05-04T17:25:37.971Z,2.40
2019-05-04T17:28:15.583Z,9.57
2019-05-04T17:30:56.539Z,23.57
2019-05-04T17:33:26.249Z,10.17
2019-05-04T17:35:57.738Z,7.57
2019-05-04T17:38:27.961Z,4.07
2019-05-04T17:41:28.660Z,2.70
2019-05-04T17:44:16.522Z,2.40
2019-05-04T17:46:58.609Z,3.63
2019-05-04T17:49:33.942Z,3.83
2019-05-04T17:52:07.360Z,3.67
2019-05-04T17:54:40.674Z,3.13
2019-05-04T17:57:10.269Z,2.67
2019-05-04T18:00:05.126Z,3.10
2019-05-04T18:02:39.712Z,3.10
2019-05-04T18:05:15.199Z,3.90
2019-05-04T18:07:44.867Z,2.73
2019-05-04T18:10:15.271Z,3.77
2019-05-04T18:12:58.272Z,4.77
2019-05-04T18:15:46.346Z,4.20
2019-05-04T18:18:34.623Z,4.07
2019-05-04T18:21:04.825Z,3.17
2019-05-04T18:23:35.016Z,4.00
2019-05-04T18:26:04.468Z,4.60
2019-05-04T18:28:35.637Z,4.50
2019-05-04T18:31:08.140Z,3.10
2019-05-04T18:33:38.060Z,4.47
2019-05-04T18:36:09.337Z,4.27
2019-05-04T18:38:38.816Z,4.10
2019-05-04T18:41:15.696Z,4.67
2019-05-04T18:44:12.140Z,4.50
2019-05-04T18:47:16.987Z,3.23
2019-05-04T18:49:48.108Z,4.07
2019-05-04T18:52:17.750Z,3.20
2019-05-04T18:54:48.325Z,3.30
2019-05-04T18:57:17.632Z,3.93
2019-05-04T18:59:47.121Z,4.50
2019-05-04T19:02:16.737Z,4.40
2019-05-04T19:04:46.429Z,3.93
2019-05-04T19:08:02.138Z,4.10
2019-05-04T19:10:29.111Z,3.87
2019-05-04T19:12:58.561Z,5.07
2019-05-04T19:15:28.077Z,4.07
2019-05-04T19:17:58.468Z,4.00
2019-05-04T19:20:29.338Z,4.03
2019-05-04T19:22:58.645Z,5.53
2019-05-04T19:25:28.334Z,6.97
2019-05-04T19:27:58.185Z,7.50
2019-05-04T19:30:27.568Z,6.53
2019-05-04T19:32:57.162Z,5.73
2019-05-04T19:35:26.566Z,6.63
2019-05-04T19:37:56.964Z,6.40
2019-05-04T19:40:39.575Z,4.60
2019-05-04T19:43:15.336Z,4.50
2019-05-04T19:46:09.438Z,5.20
2019-05-04T19:48:39.626Z,5.50
2019-05-04T19:51:09.167Z,5.27
2019-05-04T19:53:38.711Z,5.13
2019-05-04T19:56:08.392Z,23.53
2019-05-04T19:58:39.028Z,17.27
2019-05-04T20:01:09.080Z,18.83
2019-05-04T20:03:39.560Z,6.33
2019-05-04T20:06:09.032Z,5.50
2019-05-04T20:08:45.207Z,5.30
2019-05-04T20:11:28.406Z,3.93
2019-05-04T20:13:58.032Z,4.70
2019-05-04T20:16:27.491Z,4.47
2019-05-04T20:18:56.993Z,3.67
2019-05-04T20:21:26.900Z,3.93
2019-05-04T20:23:57.166Z,3.40
2019-05-04T20:26:26.843Z,4.17
2019-05-04T20:28:56.215Z,5.10
2019-05-04T20:31:25.534Z,4.50
2019-05-04T20:33:57.299Z,5.77
2019-05-04T20:36:27.089Z,6.83
2019-05-04T20:38:56.446Z,7.53
2019-05-04T20:41:26.351Z,6.50
2019-05-04T20:44:10.083Z,6.10
2019-05-04T20:47:04.677Z,5.60
2019-05-04T20:49:35.772Z,5.10
2019-05-04T20:52:05.506Z,6.07
2019-05-04T20:54:35.225Z,5.03
2019-05-04T20:57:05.401Z,5.43
2019-05-04T20:59:35.224Z,6.00
2019-05-04T21:02:12.281Z,6.50
2019-05-04T21:05:05.514Z,5.60
2019-05-04T21:07:38.120Z,6.00
2019-05-04T21:10:08.331Z,6.27
2019-05-04T21:12:39.191Z,13.37
2019-05-04T21:15:08.973Z,17.30
2019-05-04T21:18:03.671Z,11.47
2019-05-04T21:20:57.849Z,13.17
2019-05-04T21:23:27.406Z,8.17
2019-05-04T21:25:57.170Z,8.90
2019-05-04T21:28:26.649Z,9.40
2019-05-04T21:30:55.985Z,8.80
2019-05-04T21:33:25.415Z,6.70
2019-05-04T21:35:55.249Z,8.53
2019-05-04T21:38:25.154Z,0.60
2019-05-04T21:40:54.961Z,0.60
2019-05-04T21:43:26.014Z,0.60
2019-05-04T21:46:24.391Z,0.60
2019-05-04T21:49:12.141Z,0.70
2019-05-04T21:51:41.506Z,0.70
2019-05-04T21:54:11.671Z,0.63
2019-05-04T21:56:48.340Z,0.80
2019-05-04T21:59:17.992Z,2.67
2019-05-04T22:02:09.036Z,0.60
2019-05-04T22:04:44.690Z,0.60
2019-05-04T22:07:15.263Z,0.60
2019-05-04T22:09:45.252Z,0.60
2019-05-04T22:12:15.275Z,0.70
2019-05-04T22:14:44.919Z,0.70
2019-05-04T22:17:24.963Z,0.70
2019-05-04T22:19:57.292Z,0.60
2019-05-04T22:22:26.898Z,0.70
2019-05-04T22:24:56.229Z,0.60
2019-05-04T22:27:25.629Z,0.70
2019-05-04T22:29:56.307Z,0.70
2019-05-04T22:32:25.915Z,0.63
2019-05-04T22:34:55.492Z,0.70
2019-05-04T22:37:34.527Z,0.70
2019-05-04T22:40:24.671Z,0.60
2019-05-04T22:42:54.439Z,0.63
2019-05-04T22:45:25.479Z,0.60
2019-05-04T22:47:56.485Z,0.70
2019-05-04T22:50:26.173Z,0.70
2019-05-04T22:53:10.557Z,0.70
2019-05-04T22:55:46.803Z,0.60
2019-05-04T22:58:34.803Z,0.80
2019-05-04T23:01:17.143Z,0.60
2019-05-04T23:03:50.343Z,0.63
2019-05-04T23:06:19.641Z,0.70
2019-05-04T23:08:49.061Z,0.73
2019-05-04T23:11:18.559Z,0.77
2019-05-04T23:13:47.979Z,0.70
2019-05-04T23:16:22.713Z,0.70
2019-05-04T23:19:00.051Z,0.80
2019-05-04T23:21:23.409Z,0.60
2019-05-04T23:23:54.911Z,0.80
2019-05-04T23:26:24.277Z,0.70
2019-05-04T23:28:54.403Z,0.70
2019-05-04T23:31:25.327Z,0.83
2019-05-04T23:33:56.149Z,0.70
2019-05-04T23:36:25.825Z,0.87
2019-05-04T23:38:55.302Z,0.90
2019-05-04T23:41:27.068Z,0.80
2019-05-04T23:43:56.265Z,0.83
2019-05-04T23:46:30.374Z,1.10
2019-05-04T23:49:12.921Z,1.00
2019-05-04T23:51:34.029Z,0.70
2019-05-04T23:54:03.436Z,0.80
2019-05-04T23:56:34.773Z,0.90
2019-05-04T23:59:07.530Z,1.00
